createdAt,value
2018-01-04T00:00:50.925Z,7.92
2018-01-04T00:03:19.878Z,7.95
2018-01-04T00:05:48.505Z,7.98
2018-01-04T00:08:16.892Z,7.81
2018-01-04T00:10:46.825Z,7.63
2018-01-04T00:13:15.609Z,7.60
2018-01-04T00:15:44.711Z,7.50
2018-01-04T00:18:15.041Z,7.55
2018-01-04T00:20:45.096Z,7.61
2018-01-04T00:23:15.289Z,7.70
2018-01-04T00:25:45.013Z,7.80
2018-01-04T00:28:14.340Z,7.84
2018-01-04T00:30:44.796Z,7.76
2018-01-04T00:33:14.488Z,7.80
2018-01-04T00:35:43.840Z,7.76
2018-01-04T00:38:12.473Z,7.74
2018-01-04T00:40:42.644Z,7.83
2018-01-04T00:43:12.221Z,7.92
2018-01-04T00:45:41.445Z,7.92
2018-01-04T00:48:09.888Z,7.89
2018-01-04T00:50:39.012Z,8.00
2018-01-04T00:53:08.152Z,8.00
2018-01-04T00:55:36.976Z,7.92
2018-01-04T00:58:06.083Z,7.96
2018-01-04T01:00:34.813Z,7.96
2018-01-04T01:03:03.216Z,8.00
2018-01-04T01:05:31.940Z,7.90
2018-01-04T01:08:00.340Z,7.74
2018-01-04T01:10:29.689Z,7.79
2018-01-04T01:12:58.072Z,7.74
2018-01-04T01:15:26.421Z,7.83
2018-01-04T01:17:54.812Z,7.89
2018-01-04T01:20:26.752Z,7.91
2018-01-04T01:22:55.896Z,7.89
2018-01-04T01:25:25.024Z,7.91
2018-01-04T01:27:53.389Z,7.91
2018-01-04T01:30:24.165Z,7.85
2018-01-04T01:32:52.563Z,7.90
2018-01-04T01:35:20.967Z,7.83
2018-01-04T01:37:50.064Z,7.76
2018-01-04T01:40:19.226Z,7.67
2018-01-04T01:42:47.588Z,7.73
2018-01-04T01:45:15.959Z,7.69
2018-01-04T01:47:44.276Z,7.65
2018-01-04T01:50:13.378Z,7.62
2018-01-04T01:52:42.490Z,7.55
2018-01-04T01:55:11.356Z,7.54
2018-01-04T01:57:41.143Z,7.31
2018-01-04T02:00:11.177Z,7.59
2018-01-04T02:02:39.521Z,7.62
2018-01-04T02:05:08.306Z,7.65
2018-01-04T02:07:37.176Z,7.70
2018-01-04T02:12:47.213Z,7.68
2018-01-04T02:15:17.283Z,7.50
2018-01-04T02:17:47.147Z,7.48
2018-01-04T02:23:52.369Z,7.45
2018-01-04T02:26:39.025Z,7.52
2018-01-04T02:29:26.869Z,7.52
2018-01-04T02:32:13.655Z,7.51
2018-01-04T02:35:01.881Z,7.50
2018-01-04T02:37:50.036Z,7.53
2018-01-04T02:40:37.467Z,7.48
2018-01-04T02:43:24.180Z,7.43
2018-01-04T02:46:10.679Z,7.33
2018-01-04T02:48:39.099Z,7.21
2018-01-04T02:51:09.811Z,7.19
2018-01-04T02:53:38.156Z,7.18
2018-01-04T02:56:07.383Z,7.17
2018-01-04T02:58:35.899Z,7.13
2018-01-04T03:01:04.255Z,7.17
2018-01-04T03:03:32.595Z,7.11
2018-01-04T03:06:01.115Z,7.07
2018-01-04T03:08:29.851Z,7.11
2018-01-04T03:10:58.211Z,7.05
2018-01-04T03:13:28.218Z,7.01
2018-01-04T03:15:56.662Z,7.09
2018-01-04T03:18:26.575Z,7.10
2018-01-04T03:20:55.866Z,7.12
2018-01-04T03:23:30.031Z,7.14
2018-01-04T03:26:04.684Z,7.20
2018-01-04T03:28:38.572Z,7.17
2018-01-04T03:31:13.076Z,7.19
2018-01-04T03:33:46.887Z,7.17
2018-01-04T03:36:21.646Z,7.22
2018-01-04T03:38:55.715Z,7.29
2018-01-04T03:41:29.491Z,7.32
2018-01-04T03:44:04.174Z,7.28
2018-01-04T03:46:37.966Z,7.30
2018-01-04T03:49:12.138Z,7.14
2018-01-04T03:51:46.774Z,7.20
2018-01-04T03:54:20.646Z,7.17
2018-01-04T03:56:54.390Z,7.30
2018-01-04T03:59:30.390Z,7.34
2018-01-04T04:02:04.102Z,7.60
2018-01-04T04:04:39.175Z,7.55
2018-01-04T04:07:13.802Z,7.39
2018-01-04T04:09:42.154Z,7.36
2018-01-04T04:12:10.530Z,7.34
2018-01-04T04:14:40.150Z,7.21
2018-01-04T04:17:09.242Z,7.20
2018-01-04T04:19:38.375Z,7.14
2018-01-04T04:22:07.922Z,7.28
2018-01-04T04:24:36.254Z,7.26
2018-01-04T04:27:05.446Z,7.32
2018-01-04T04:29:34.510Z,7.23
2018-01-04T04:32:03.634Z,7.24
2018-01-04T04:34:32.770Z,7.26
2018-01-04T04:37:01.122Z,7.25
2018-01-04T04:39:30.946Z,7.28
2018-01-04T04:41:59.322Z,7.32
2018-01-04T04:44:27.630Z,7.34
2018-01-04T04:46:56.338Z,7.38
2018-01-04T04:49:25.094Z,7.37
2018-01-04T04:51:53.429Z,7.40
2018-01-04T04:54:21.875Z,7.33
2018-01-04T04:56:50.978Z,7.40
2018-01-04T04:59:20.158Z,7.41
2018-01-04T05:01:48.470Z,7.43
2018-01-04T05:04:17.217Z,7.45
2018-01-04T05:06:45.530Z,7.44
2018-01-04T05:09:13.875Z,7.49
2018-01-04T05:11:42.200Z,7.50
2018-01-04T05:14:10.635Z,7.54
2018-01-04T05:16:38.953Z,7.57
2018-01-04T05:19:08.033Z,7.58
2018-01-04T05:21:36.427Z,7.64
2018-01-04T05:24:04.753Z,7.67
2018-01-04T05:26:33.126Z,7.61
2018-01-04T05:29:01.449Z,7.60
2018-01-04T05:31:30.162Z,7.82
2018-01-04T05:33:58.918Z,7.83
2018-01-04T05:36:27.274Z,7.80
2018-01-04T05:38:56.499Z,7.72
2018-01-04T05:41:24.829Z,7.66
2018-01-04T05:43:53.151Z,7.68
2018-01-04T05:46:21.509Z,7.72
2018-01-04T05:48:49.865Z,7.74
2018-01-04T05:51:18.221Z,7.67
2018-01-04T05:53:48.057Z,7.95
2018-01-04T05:56:17.765Z,7.81
2018-01-04T05:58:46.106Z,7.66
2018-01-04T06:01:14.481Z,7.57
2018-01-04T06:03:43.663Z,7.55
2018-01-04T06:06:13.837Z,7.47
2018-01-04T06:08:42.212Z,7.48
2018-01-04T06:11:10.534Z,7.55
2018-01-04T06:13:38.851Z,7.51
2018-01-04T06:16:07.657Z,7.53
2018-01-04T06:18:35.945Z,7.54
2018-01-04T06:21:05.085Z,7.55
2018-01-04T06:23:33.409Z,7.60
2018-01-04T06:26:01.745Z,7.55
2018-01-04T06:28:30.114Z,7.55
2018-01-04T06:30:58.433Z,7.52
2018-01-04T06:33:26.789Z,7.56
2018-01-04T06:35:55.905Z,7.65
2018-01-04T06:38:25.082Z,7.61
2018-01-04T06:40:53.441Z,7.55
2018-01-04T06:43:21.765Z,7.68
2018-01-04T06:45:50.089Z,7.68
2018-01-04T06:48:18.449Z,7.63
2018-01-04T06:50:47.573Z,7.63
2018-01-04T06:53:16.285Z,7.72
2018-01-04T06:55:44.650Z,7.69
2018-01-04T06:58:13.029Z,7.66
2018-01-04T07:00:41.378Z,7.66
2018-01-04T07:03:09.745Z,7.58
2018-01-04T07:05:38.073Z,7.62
2018-01-04T07:08:06.441Z,7.61
2018-01-04T07:10:34.813Z,7.66
2018-01-04T07:13:03.153Z,7.64
2018-01-04T07:15:31.489Z,7.67
2018-01-04T07:17:59.845Z,7.65
2018-01-04T07:20:28.161Z,7.73
2018-01-04T07:22:57.275Z,7.71
2018-01-04T07:25:26.745Z,7.71
2018-01-04T07:27:56.264Z,7.67
2018-01-04T07:30:24.621Z,7.68
2018-01-04T07:32:53.085Z,7.71
2018-01-04T07:35:22.224Z,7.75
2018-01-04T07:37:51.445Z,7.79
2018-01-04T07:40:19.764Z,7.79
2018-01-04T07:42:48.869Z,7.80
2018-01-04T07:45:17.236Z,7.81
2018-01-04T07:47:45.556Z,7.85
2018-01-04T07:50:14.649Z,7.92
2018-01-04T07:52:43.793Z,8.03
2018-01-04T07:55:12.133Z,8.00
2018-01-04T07:57:41.229Z,7.96
2018-01-04T08:00:09.981Z,7.95
2018-01-04T08:02:38.714Z,7.97
2018-01-04T08:05:07.445Z,7.98
2018-01-04T08:07:36.577Z,7.99
2018-01-04T08:10:05.741Z,8.01
2018-01-04T08:12:34.110Z,8.15
2018-01-04T08:15:02.469Z,8.14
2018-01-04T08:17:30.801Z,8.17
2018-01-04T08:20:00.605Z,8.23
2018-01-04T08:22:28.974Z,8.28
2018-01-04T08:25:11.345Z,8.29
2018-01-04T08:27:40.103Z,8.32
2018-01-04T08:30:08.490Z,8.39
2018-01-04T08:32:37.581Z,8.38
2018-01-04T08:35:05.953Z,8.38
2018-01-04T08:37:34.281Z,8.50
2018-01-04T08:40:02.619Z,8.61
2018-01-04T08:42:30.993Z,8.68
2018-01-04T08:45:00.700Z,8.68
2018-01-04T08:47:29.480Z,8.64
2018-01-04T08:49:57.808Z,8.66
2018-01-04T08:52:27.285Z,8.49
2018-01-04T08:54:55.692Z,8.54
2018-01-04T08:57:24.028Z,8.44
2018-01-04T08:59:53.956Z,8.46
2018-01-04T09:02:22.322Z,8.51
2018-01-04T09:04:50.909Z,8.48
2018-01-04T09:07:19.649Z,8.50
2018-01-04T09:09:48.006Z,8.53
2018-01-04T09:12:23.480Z,8.62
2018-01-04T09:14:51.836Z,8.67
2018-01-04T09:17:20.584Z,8.82
2018-01-04T09:19:49.333Z,9.04
2018-01-04T09:22:18.436Z,8.97
2018-01-04T09:24:47.582Z,8.72
2018-01-04T09:27:15.962Z,8.98
2018-01-04T09:29:45.044Z,9.25
2018-01-04T09:32:13.410Z,9.39
2018-01-04T09:34:41.745Z,9.09
2018-01-04T09:37:10.098Z,9.15
2018-01-04T09:39:38.832Z,9.15
2018-01-04T09:42:07.980Z,9.00
2018-01-04T09:44:36.324Z,9.03
2018-01-04T09:47:05.436Z,9.17
2018-01-04T09:49:34.569Z,9.21
2018-01-04T09:52:03.324Z,9.50
2018-01-04T09:54:31.673Z,9.48
2018-01-04T09:57:00.001Z,9.33
2018-01-04T09:59:29.656Z,9.54
2018-01-04T10:01:58.396Z,9.51
2018-01-04T10:04:26.748Z,9.81
2018-01-04T10:06:55.116Z,10.05
2018-01-04T10:09:23.433Z,10.06
2018-01-04T10:11:51.801Z,10.04
2018-01-04T10:14:20.154Z,9.63
2018-01-04T10:16:48.865Z,9.62
2018-01-04T10:19:17.241Z,9.56
2018-01-04T10:21:46.717Z,9.44
2018-01-04T10:24:15.084Z,9.44
2018-01-04T10:26:43.832Z,9.30
2018-01-04T10:29:12.188Z,9.22
2018-01-04T10:31:40.912Z,9.22
2018-01-04T10:34:10.365Z,9.06
2018-01-04T10:36:39.071Z,8.96
2018-01-04T10:39:07.449Z,9.06
2018-01-04T10:41:35.789Z,9.15
2018-01-04T10:44:04.180Z,8.87
2018-01-04T10:46:32.504Z,9.07
2018-01-04T10:49:02.458Z,9.17
2018-01-04T10:51:31.600Z,9.32
2018-01-04T10:54:00.696Z,9.09
2018-01-04T10:56:29.074Z,9.06
2018-01-04T10:58:57.467Z,9.40
2018-01-04T11:01:26.863Z,9.77
2018-01-04T11:03:55.422Z,9.72
2018-01-04T11:06:23.711Z,9.60
2018-01-04T11:08:52.099Z,9.28
2018-01-04T11:11:20.801Z,9.16
2018-01-04T11:13:49.928Z,9.41
2018-01-04T11:16:19.411Z,9.27
2018-01-04T11:18:47.736Z,9.23
2018-01-04T11:21:16.116Z,9.19
2018-01-04T11:23:44.444Z,9.11
2018-01-04T11:26:12.827Z,8.86
2018-01-04T11:28:41.196Z,9.04
2018-01-04T11:31:09.580Z,9.25
2018-01-04T11:33:38.316Z,9.22
2018-01-04T11:36:07.459Z,9.18
2018-01-04T11:38:36.188Z,9.22
2018-01-04T11:41:04.919Z,9.23
2018-01-04T11:43:34.067Z,9.09
2018-01-04T11:46:03.180Z,9.23
2018-01-04T11:48:31.559Z,9.29
2018-01-04T11:50:59.875Z,9.39
2018-01-04T11:53:28.215Z,9.38
2018-01-04T11:55:56.583Z,9.21
2018-01-04T11:58:24.951Z,9.31
2018-01-04T12:00:53.310Z,9.22
2018-01-04T12:03:21.884Z,9.20
2018-01-04T12:05:50.244Z,9.09
2018-01-04T12:08:19.359Z,9.10
2018-01-04T12:10:48.124Z,9.20
2018-01-04T12:13:17.219Z,9.21
2018-01-04T12:15:46.352Z,9.36
2018-01-04T12:18:14.691Z,9.32
2018-01-04T12:20:43.402Z,9.21
2018-01-04T12:23:12.162Z,9.19
2018-01-04T12:25:41.291Z,9.40
2018-01-04T12:28:10.795Z,9.29
2018-01-04T12:30:39.510Z,9.26
2018-01-04T12:33:07.878Z,9.32
2018-01-04T12:35:36.601Z,9.32
2018-01-04T12:38:04.950Z,9.16
2018-01-04T12:40:33.398Z,9.10
2018-01-04T12:43:01.835Z,8.87
2018-01-04T12:45:30.163Z,8.89
2018-01-04T12:47:58.558Z,8.72
2018-01-04T12:50:27.358Z,8.77
2018-01-04T12:52:55.694Z,8.78
2018-01-04T12:55:24.074Z,9.06
2018-01-04T12:57:52.423Z,8.96
2018-01-04T13:00:21.515Z,8.82
2018-01-04T13:02:50.647Z,8.97
2018-01-04T13:05:18.978Z,8.95
2018-01-04T13:07:47.343Z,8.96
2018-01-04T13:10:15.695Z,8.97
2018-01-04T13:12:44.046Z,9.03
2018-01-04T13:15:12.361Z,9.04
2018-01-04T13:17:41.495Z,8.87
2018-01-04T13:20:10.577Z,8.70
2018-01-04T13:22:39.686Z,8.68
2018-01-04T13:25:08.818Z,8.73
2018-01-04T13:27:37.229Z,8.89
2018-01-04T13:30:05.814Z,8.97
2018-01-04T13:32:34.151Z,8.99
2018-01-04T13:35:02.507Z,8.83
2018-01-04T13:37:31.634Z,8.89
2018-01-04T13:40:01.665Z,8.96
2018-01-04T13:42:30.008Z,8.96
2018-01-04T13:44:59.099Z,8.95
2018-01-04T13:47:28.229Z,9.01
2018-01-04T13:49:56.603Z,8.98
2018-01-04T13:52:26.830Z,8.99
2018-01-04T13:54:55.293Z,8.88
2018-01-04T13:57:27.844Z,8.92
2018-01-04T13:59:57.165Z,8.77
2018-01-04T14:02:26.258Z,8.75
2018-01-04T14:04:55.510Z,8.70
2018-01-04T14:07:25.021Z,8.65
2018-01-04T14:09:54.321Z,8.63
2018-01-04T14:12:23.473Z,8.58
2018-01-04T14:14:51.815Z,8.60
2018-01-04T14:17:20.941Z,8.62
2018-01-04T14:19:50.137Z,8.61
2018-01-04T14:22:18.549Z,8.61
2018-01-04T14:24:47.667Z,8.49
2018-01-04T14:27:16.746Z,8.47
2018-01-04T14:29:45.067Z,8.48
2018-01-04T14:32:13.393Z,8.51
2018-01-04T14:34:41.743Z,8.48
2018-01-04T14:37:11.229Z,8.44
2018-01-04T14:39:39.977Z,8.37
2018-01-04T14:42:08.317Z,8.32
2018-01-04T14:44:36.717Z,8.12
2018-01-04T14:47:05.473Z,8.06
2018-01-04T14:49:34.980Z,7.90
2018-01-04T14:52:03.301Z,7.85
2018-01-04T14:54:31.662Z,7.81
2018-01-04T14:57:00.749Z,7.83
2018-01-04T14:59:30.641Z,7.84
2018-01-04T15:01:58.985Z,7.82
2018-01-04T15:04:28.084Z,7.81
2018-01-04T15:06:57.209Z,7.84
2018-01-04T15:09:26.745Z,7.86
2018-01-04T15:11:55.102Z,7.87
2018-01-04T15:14:23.473Z,7.91
2018-01-04T15:16:51.798Z,7.92
2018-01-04T15:19:20.128Z,7.91
2018-01-04T15:21:48.505Z,7.92
2018-01-04T15:24:16.845Z,7.89
2018-01-04T15:26:45.966Z,7.89
2018-01-04T15:29:14.322Z,7.87
2018-01-04T15:31:43.069Z,7.86
2018-01-04T15:34:11.528Z,7.86
2018-01-04T15:36:39.888Z,7.84
2018-01-04T15:39:08.277Z,7.83
2018-01-04T15:41:37.423Z,7.83
2018-01-04T15:44:05.795Z,7.75
2018-01-04T15:46:34.141Z,7.78
2018-01-04T15:49:02.527Z,7.79
2018-01-04T15:51:30.869Z,7.80
2018-01-04T15:53:59.201Z,7.80
2018-01-04T15:56:27.588Z,7.82
2018-01-04T15:58:55.919Z,7.78
2018-01-04T16:01:24.352Z,7.75
2018-01-04T16:03:53.533Z,7.75
2018-01-04T16:06:22.383Z,7.72
2018-01-04T16:08:50.716Z,7.75
2018-01-04T16:11:19.333Z,7.73
2018-01-04T16:13:47.674Z,7.70
2018-01-04T16:16:16.117Z,7.68
2018-01-04T16:18:44.458Z,7.67
2018-01-04T16:21:12.842Z,7.71
2018-01-04T16:23:41.194Z,7.71
2018-01-04T16:26:10.329Z,7.67
2018-01-04T16:28:38.708Z,7.67
2018-01-04T16:31:07.506Z,7.66
2018-01-04T16:33:35.913Z,7.63
2018-01-04T16:36:04.769Z,7.61
2018-01-04T16:38:33.841Z,7.59
2018-01-04T16:41:03.256Z,7.57
2018-01-04T16:43:31.595Z,7.53
2018-01-04T16:46:00.393Z,7.53
2018-01-04T16:48:29.532Z,7.51
2018-01-04T16:50:59.040Z,7.54
2018-01-04T16:53:27.432Z,7.53
2018-01-04T16:55:55.841Z,7.53
2018-01-04T16:58:24.786Z,7.52
2018-01-04T17:00:53.190Z,7.55
2018-01-04T17:03:22.297Z,7.54
2018-01-04T17:05:51.432Z,7.58
2018-01-04T17:08:20.274Z,7.56
2018-01-04T17:10:49.077Z,7.53
2018-01-04T17:13:18.820Z,7.53
2018-01-04T17:15:47.218Z,7.51
2018-01-04T17:18:16.394Z,7.48
2018-01-04T17:20:45.153Z,7.46
2018-01-04T17:23:14.749Z,7.49
2018-01-04T17:25:43.842Z,7.57
2018-01-04T17:28:12.304Z,7.51
2018-01-04T17:30:41.474Z,7.47
2018-01-04T17:33:09.801Z,7.48
2018-01-04T17:35:38.957Z,7.48
2018-01-04T17:38:07.347Z,7.46
2018-01-04T17:40:35.716Z,7.48
2018-01-04T17:43:05.785Z,7.48
2018-01-04T17:45:34.928Z,7.50
2018-01-04T17:48:03.281Z,7.51
2018-01-04T17:50:31.606Z,7.51
2018-01-04T17:53:01.504Z,7.51
2018-01-04T17:55:30.922Z,7.54
2018-01-04T17:57:59.328Z,7.54
2018-01-04T18:00:28.460Z,7.60
2018-01-04T18:02:57.254Z,7.60
2018-01-04T18:05:26.049Z,7.64
2018-01-04T18:07:54.416Z,7.63
2018-01-04T18:10:23.201Z,7.69
2018-01-04T18:12:51.528Z,7.66
2018-01-04T18:15:20.004Z,7.62
2018-01-04T18:17:48.816Z,7.59
2018-01-04T18:20:17.192Z,7.61
2018-01-04T18:22:46.344Z,7.62
2018-01-04T18:25:14.900Z,7.62
2018-01-04T18:27:43.264Z,7.64
2018-01-04T18:30:12.428Z,7.55
2018-01-04T18:32:40.782Z,7.47
2018-01-04T18:35:09.934Z,7.52
2018-01-04T18:37:38.303Z,7.44
2018-01-04T18:40:06.704Z,7.44
2018-01-04T18:42:35.137Z,7.44
2018-01-04T18:45:03.524Z,7.39
2018-01-04T18:47:34.136Z,7.38
2018-01-04T18:50:02.517Z,7.34
2018-01-04T18:52:30.857Z,7.36
2018-01-04T18:54:59.217Z,7.30
2018-01-04T18:57:28.240Z,7.30
2018-01-04T18:59:58.067Z,7.35
2018-01-04T19:02:26.498Z,7.41
2018-01-04T19:04:54.834Z,7.43
2018-01-04T19:07:23.841Z,7.36
2018-01-04T19:09:53.600Z,7.36
2018-01-04T19:12:23.192Z,7.43
2018-01-04T19:14:52.504Z,7.38
2018-01-04T19:17:20.917Z,7.39
2018-01-04T19:19:49.289Z,7.44
2018-01-04T19:22:18.567Z,7.47
2018-01-04T19:24:47.803Z,7.45
2018-01-04T19:27:16.141Z,7.49
2018-01-04T19:29:47.222Z,7.56
2018-01-04T19:32:18.287Z,7.53
2018-01-04T19:34:47.223Z,7.54
2018-01-04T19:37:17.917Z,7.50
2018-01-04T19:39:46.290Z,7.50
2018-01-04T19:42:17.025Z,7.54
2018-01-04T19:44:46.327Z,7.53
2018-01-04T19:47:19.103Z,7.52
2018-01-04T19:49:48.572Z,7.55
2018-01-04T19:52:43.851Z,7.55
2018-01-04T19:55:18.104Z,7.62
2018-01-04T19:58:09.214Z,7.65
2018-01-04T20:00:49.229Z,7.72
2018-01-04T20:03:18.391Z,7.69
2018-01-04T20:05:47.532Z,7.76
2018-01-04T20:08:16.012Z,7.72
2018-01-04T20:10:45.932Z,7.73
2018-01-04T20:13:16.630Z,7.75
2018-01-04T20:15:45.813Z,7.65
2018-01-04T20:18:17.142Z,7.70
2018-01-04T20:20:47.435Z,7.78
2018-01-04T20:23:15.794Z,7.78
2018-01-04T20:25:45.383Z,7.78
2018-01-04T20:28:13.767Z,7.78
2018-01-04T20:30:42.916Z,7.76
2018-01-04T20:33:13.003Z,7.75
2018-01-04T20:35:43.014Z,7.83
2018-01-04T20:38:14.618Z,7.79
2018-01-04T20:40:42.983Z,7.77
2018-01-04T20:43:12.122Z,7.80
2018-01-04T20:45:48.234Z,7.78
2018-01-04T20:48:16.969Z,7.75
2018-01-04T20:50:48.467Z,7.82
2018-01-04T20:53:18.154Z,7.79
2018-01-04T20:55:47.433Z,7.78
2018-01-04T20:58:16.583Z,7.81
2018-01-04T21:00:46.242Z,7.75
2018-01-04T21:03:15.366Z,7.72
2018-01-04T21:05:44.198Z,7.71
2018-01-04T21:08:12.979Z,7.72
2018-01-04T21:10:43.402Z,7.76
2018-01-04T21:13:13.694Z,7.74
2018-01-04T21:15:44.271Z,7.66
2018-01-04T21:18:12.870Z,7.73
2018-01-04T21:20:43.281Z,7.80
2018-01-04T21:23:14.579Z,7.73
2018-01-04T21:25:47.102Z,7.64
2018-01-04T21:28:16.403Z,7.75
2018-01-04T21:30:46.769Z,7.70
2018-01-04T21:33:17.241Z,7.65
2018-01-04T21:35:46.986Z,7.67
2018-01-04T21:38:17.457Z,7.68
2018-01-04T21:40:46.738Z,7.62
2018-01-04T21:43:16.794Z,7.59
2018-01-04T21:45:50.257Z,7.59
2018-01-04T21:48:19.813Z,7.50
2018-01-04T21:50:49.573Z,7.54
2018-01-04T21:53:20.762Z,7.49
2018-01-04T21:55:50.785Z,7.49
2018-01-04T21:58:20.745Z,7.48
2018-01-04T22:00:50.909Z,7.31
2018-01-04T22:03:19.905Z,7.27
2018-01-04T22:05:48.718Z,7.34
2018-01-04T22:08:17.882Z,7.42
2018-01-04T22:10:46.674Z,7.44
2018-01-04T22:13:15.451Z,7.53
2018-01-04T22:15:45.173Z,7.54
2018-01-04T22:18:14.345Z,7.59
2018-01-04T22:20:43.590Z,7.50
2018-01-04T22:23:11.997Z,7.54
2018-01-04T22:25:40.517Z,7.57
2018-01-04T22:28:09.018Z,7.60
2018-01-04T22:30:37.438Z,7.52
2018-01-04T22:33:06.409Z,7.41
2018-01-04T22:35:35.538Z,7.31
2018-01-04T22:38:03.962Z,7.26
2018-01-04T22:40:33.081Z,7.40
2018-01-04T22:43:02.961Z,7.49
2018-01-04T22:45:31.727Z,7.55
2018-01-04T22:48:00.869Z,7.64
2018-01-04T22:50:32.730Z,7.60
2018-01-04T22:53:01.567Z,7.52
2018-01-04T22:55:29.906Z,7.54
2018-01-04T22:57:58.358Z,7.42
2018-01-04T23:00:27.469Z,7.35
2018-01-04T23:02:56.226Z,7.47
2018-01-04T23:05:25.345Z,7.46
2018-01-04T23:07:55.438Z,7.48
2018-01-04T23:10:23.825Z,7.47
2018-01-04T23:12:53.042Z,7.56
2018-01-04T23:15:21.411Z,7.52
2018-01-04T23:17:51.270Z,7.40
2018-01-04T23:20:19.741Z,7.39
2018-01-04T23:22:48.466Z,7.42
2018-01-04T23:25:16.833Z,7.45
2018-01-04T23:27:45.555Z,7.55
2018-01-04T23:30:14.694Z,7.61
2018-01-04T23:32:43.050Z,7.65
2018-01-04T23:35:11.369Z,7.71
2018-01-04T23:37:39.719Z,7.76
2018-01-04T23:40:08.082Z,7.79
2018-01-04T23:42:36.400Z,7.80
2018-01-04T23:45:04.726Z,7.80
2018-01-04T23:47:33.081Z,7.85
2018-01-04T23:50:01.454Z,7.84
2018-01-04T23:52:29.765Z,7.86
2018-01-04T23:54:58.083Z,7.84
2018-01-04T23:57:26.438Z,7.85
2018-01-04T23:59:55.893Z,7.83
